logo
Rechercher aéroport 
image banner adimage banner adimage banner ad
image banner ad

SBJE - Comandante Ariston Pessoa

Situé à Cruz, Brazil

ICAO - SBJE, IATA -

Données fournies par Airmate  

Information générale

Coordonnées: S2°54'24" W40°21'29"
Élévation : 88 feet MSL.
Variation magnétique : -20.65° East
Voir autres Aéroports à Ceará

Données opérationnelles

Special qualification required
Heure actuelle UTC:
Heure actuelle locale:
Météo à : - ( 0 km )
METAR: KSDY 240736Z AUTO 34012KT 10SM BKN014 BKN032 OVC045 07/06 A2980 RMK AO2 RAE09 P0000
Voir NOTAMs / SUP AIP / TFR affectant cet aéroport [VIEW]
Fréquences de communication: [VIEW]

Pistes:

Identifiant RWYQFULongueur (ft)Largeur (ft)SurfaceLDA (ft)
087612919ASPH
267612919ASPH

Coordonnées de l'aéroport

Adresse: Cruz Brazil

Vue satellite de SBJE